createdAt,value
2022-11-06T21:02:08.216Z,988.65
2022-11-06T21:03:08.849Z,988.67
2022-11-06T21:04:10.766Z,988.67
2022-11-06T21:05:08.078Z,988.69
2022-11-06T21:06:08.108Z,988.68
2022-11-06T21:07:08.068Z,988.67
2022-11-06T21:08:08.069Z,988.69
2022-11-06T21:09:08.049Z,988.77
2022-11-06T21:10:08.047Z,988.75
2022-11-06T21:11:08.012Z,988.77
2022-11-06T21:12:07.985Z,988.78
2022-11-06T21:13:12.200Z,988.77
2022-11-06T21:14:08.026Z,988.78
2022-11-06T21:15:07.966Z,988.77
2022-11-06T21:16:07.981Z,988.79
2022-11-06T21:17:07.914Z,988.76
2022-11-06T21:18:07.902Z,988.78
2022-11-06T21:19:07.944Z,988.76
2022-11-06T21:20:07.883Z,988.78
2022-11-06T21:21:07.884Z,988.84
2022-11-06T21:22:07.880Z,988.80
2022-11-06T21:23:07.997Z,988.86
2022-11-06T21:24:07.844Z,988.86
2022-11-06T21:25:07.837Z,988.86
2022-11-06T21:26:07.869Z,988.91
2022-11-06T21:27:07.792Z,988.86
2022-11-06T21:28:07.840Z,988.94
2022-11-06T21:29:07.762Z,989.02
2022-11-06T21:30:07.762Z,988.99
2022-11-06T21:31:07.813Z,989.03
2022-11-06T21:32:07.774Z,989.06
2022-11-06T21:33:07.714Z,989.17
2022-11-06T21:34:07.711Z,989.12
2022-11-06T21:35:07.740Z,989.03
2022-11-06T21:36:07.690Z,989.08
2022-11-06T21:37:07.651Z,989.16
2022-11-06T21:38:07.780Z,989.13
2022-11-06T21:39:07.640Z,989.10
2022-11-06T21:40:07.698Z,989.10
2022-11-06T21:41:07.647Z,989.13
2022-11-06T21:42:07.588Z,989.15
2022-11-06T21:43:07.585Z,989.10
2022-11-06T21:44:07.638Z,989.15
2022-11-06T21:45:12.303Z,989.12
2022-11-06T21:46:08.595Z,989.13
2022-11-06T21:47:07.584Z,989.09
2022-11-06T21:48:14.812Z,989.07
2022-11-06T21:49:08.592Z,989.11
2022-11-06T21:50:07.560Z,989.11
2022-11-06T21:51:07.541Z,989.06
2022-11-06T21:52:07.509Z,989.05
2022-11-06T21:53:07.454Z,989.05
2022-11-06T21:54:07.529Z,989.06
2022-11-06T21:55:07.482Z,989.09
2022-11-06T21:56:07.453Z,989.13
2022-11-06T21:57:07.404Z,989.12
2022-11-06T21:58:07.384Z,989.15
2022-11-06T21:59:07.452Z,989.14
2022-11-06T22:00:07.372Z,989.19
2022-11-06T22:01:07.390Z,989.26
2022-11-06T22:02:07.451Z,989.36
2022-11-06T22:03:07.319Z,989.35
2022-11-06T22:04:07.363Z,989.48
2022-11-06T22:05:07.352Z,989.54
2022-11-06T22:06:07.336Z,989.52
2022-11-06T22:07:07.269Z,989.51
2022-11-06T22:08:07.281Z,989.45
2022-11-06T22:09:07.285Z,989.35
2022-11-06T22:10:07.250Z,989.38
2022-11-06T22:11:07.238Z,989.37
2022-11-06T22:12:07.229Z,989.33
2022-11-06T22:13:07.229Z,989.34
2022-11-06T22:14:07.185Z,989.36
2022-11-06T22:15:07.208Z,989.32
2022-11-06T22:16:07.171Z,989.37
2022-11-06T22:17:07.164Z,989.37
2022-11-06T22:18:07.139Z,989.35
2022-11-06T22:19:07.105Z,989.41
2022-11-06T22:20:07.125Z,989.40
2022-11-06T22:21:07.156Z,989.46
2022-11-06T22:22:07.104Z,989.44
2022-11-06T22:23:07.106Z,989.44
2022-11-06T22:24:07.051Z,989.34
2022-11-06T22:25:07.053Z,989.30
2022-11-06T22:26:07.189Z,989.27
2022-11-06T22:27:07.023Z,989.28
2022-11-06T22:28:07.029Z,989.35
2022-11-06T22:29:07.002Z,989.36
2022-11-06T22:30:06.971Z,989.37
2022-11-06T22:31:06.979Z,989.42
2022-11-06T22:32:06.970Z,989.43
2022-11-06T22:33:06.940Z,989.44
2022-11-06T22:34:06.941Z,989.43
2022-11-06T22:35:06.920Z,989.46
2022-11-06T22:36:06.901Z,989.42
2022-11-06T22:37:06.899Z,989.50
2022-11-06T22:38:06.892Z,989.49
2022-11-06T22:39:06.871Z,989.51
2022-11-06T22:40:06.848Z,989.53
2022-11-06T22:41:06.860Z,989.51
2022-11-06T22:42:06.817Z,989.61
2022-11-06T22:43:06.828Z,989.67
2022-11-06T22:44:06.832Z,989.66
2022-11-06T22:45:06.787Z,989.60
2022-11-06T22:46:06.768Z,989.56
2022-11-06T22:47:06.768Z,989.59
2022-11-06T22:48:06.758Z,989.63
2022-11-06T22:49:06.757Z,989.64
2022-11-06T22:50:06.739Z,989.63
2022-11-06T22:51:06.745Z,989.60
2022-11-06T22:52:06.685Z,989.65
2022-11-06T22:53:09.488Z,989.59
2022-11-06T22:54:07.684Z,989.61
2022-11-06T22:55:06.677Z,989.60
2022-11-06T22:56:06.707Z,989.56
2022-11-06T22:57:06.623Z,989.60
2022-11-06T22:58:06.613Z,989.58
2022-11-06T22:59:06.607Z,989.59
2022-11-06T23:00:06.608Z,989.56
2022-11-06T23:01:06.770Z,989.56
2022-11-06T23:02:06.749Z,989.55
2022-11-06T23:03:06.635Z,989.52
2022-11-06T23:04:06.584Z,989.59
2022-11-06T23:05:06.539Z,989.58
2022-11-06T23:06:06.512Z,989.56
2022-11-06T23:07:06.535Z,989.58
2022-11-06T23:08:06.501Z,989.60
2022-11-06T23:09:06.489Z,989.60
2022-11-06T23:10:06.472Z,989.62
2022-11-06T23:11:06.462Z,989.63
2022-11-06T23:12:06.448Z,989.66
2022-11-06T23:13:06.432Z,989.68
2022-11-06T23:14:09.253Z,989.65
2022-11-06T23:15:06.409Z,989.64
2022-11-06T23:16:06.395Z,989.62
2022-11-06T23:17:06.407Z,989.67
2022-11-06T23:18:06.398Z,989.65
2022-11-06T23:19:06.358Z,989.64
2022-11-06T23:20:06.358Z,989.60
2022-11-06T23:21:06.363Z,989.61
2022-11-06T23:22:06.331Z,989.61
2022-11-06T23:23:06.384Z,989.63
2022-11-06T23:24:06.299Z,989.62
2022-11-06T23:25:06.316Z,989.62
2022-11-06T23:26:06.304Z,989.64
2022-11-06T23:27:06.243Z,989.63
2022-11-06T23:28:06.237Z,989.62
2022-11-06T23:29:06.214Z,989.60
2022-11-06T23:30:06.251Z,989.64
2022-11-06T23:31:06.184Z,989.64
2022-11-06T23:32:06.223Z,989.65
2022-11-06T23:33:06.193Z,989.70
2022-11-06T23:34:06.209Z,989.71
2022-11-06T23:35:09.175Z,989.77
2022-11-06T23:36:07.229Z,989.77
2022-11-06T23:37:06.121Z,989.80
2022-11-06T23:38:06.110Z,989.72
2022-11-06T23:39:06.092Z,989.75
2022-11-06T23:40:06.100Z,989.72
2022-11-06T23:41:06.116Z,989.73
2022-11-06T23:42:06.064Z,989.76
2022-11-06T23:43:06.058Z,989.77
2022-11-06T23:44:06.019Z,989.74
2022-11-06T23:45:06.012Z,989.76
2022-11-06T23:46:06.028Z,989.75
2022-11-06T23:47:05.987Z,989.74
2022-11-06T23:48:08.599Z,989.77
2022-11-06T23:49:05.966Z,989.81
2022-11-06T23:50:05.946Z,989.80
2022-11-06T23:51:05.998Z,989.81
2022-11-06T23:52:05.956Z,989.82
2022-11-06T23:53:05.906Z,989.81
2022-11-06T23:54:05.937Z,989.81
2022-11-06T23:55:05.895Z,989.81
2022-11-06T23:56:05.925Z,989.80
2022-11-06T23:57:05.875Z,989.74
2022-11-06T23:58:05.844Z,989.73
2022-11-06T23:59:05.843Z,989.78
